Time;durP1;ratioP1;P1;durP2;ratioP2;P2;SDS_P1;SDS_P2;PMS_P1;PMS_P2;Temp;Humidity;BMP_temperature;BMP_pressure;BME280_temperature;BME280_humidity;BME280_pressure;Samples;Min_cycle;Max_cycle;Signal;HPM_P1;HPM_P2
2023/04/09 00:01:14;;;;;;;17.30;11.70;;;;;;;11.55;66.58;100734.24;105721;1254;66756;-74
2023/04/09 00:03:43;;;;;;;15.40;11.80;;;;;;;11.51;66.48;100730.45;105741;1254;60433;-73
2023/04/09 00:06:12;;;;;;;17.90;11.90;;;;;;;11.47;66.50;100733.75;106088;1254;60492;-73
2023/04/09 00:08:40;;;;;;;15.40;12.40;;;;;;;11.41;66.39;100736.85;105668;1255;66733;-74
2023/04/09 00:11:10;;;;;;;15.10;11.70;;;;;;;11.35;66.30;100738.20;105861;1254;60428;-73
2023/04/09 00:13:39;;;;;;;16.70;12.60;;;;;;;11.29;66.30;100737.24;105715;1254;66131;-73
2023/04/09 00:16:08;;;;;;;16.10;12.30;;;;;;;11.26;66.37;100735.71;105979;1257;60363;-73
2023/04/09 00:18:37;;;;;;;14.20;12.00;;;;;;;11.23;66.37;100731.43;105614;1254;60450;-73
2023/04/09 00:21:07;;;;;;;17.80;12.20;;;;;;;11.18;66.33;100731.75;105612;1258;66569;-73
2023/04/09 00:23:37;;;;;;;18.90;12.70;;;;;;;11.15;66.25;100731.67;105796;1254;60543;-74
2023/04/09 00:26:05;;;;;;;13.10;11.20;;;;;;;11.09;66.15;100728.77;105745;1254;65577;-74
2023/04/09 00:28:34;;;;;;;16.80;11.70;;;;;;;11.02;66.02;100731.38;106184;1254;60428;-71
2023/04/09 00:31:03;;;;;;;16.80;12.20;;;;;;;10.95;66.05;100731.58;105615;1254;60460;-73
2023/04/09 00:33:31;;;;;;;15.30;12.50;;;;;;;10.88;66.03;100731.41;105687;1253;67119;-72
2023/04/09 00:36:00;;;;;;;19.00;12.30;;;;;;;10.82;66.11;100730.97;105876;1254;60459;-73
2023/04/09 00:38:29;;;;;;;16.10;11.50;;;;;;;10.78;66.19;100733.39;105830;1256;65243;-73
2023/04/09 00:40:58;;;;;;;14.90;11.80;;;;;;;10.73;66.12;100732.16;105724;1254;60335;-73
2023/04/09 00:43:26;;;;;;;16.60;12.60;;;;;;;10.68;66.07;100732.55;105721;1254;60435;-73
2023/04/09 00:45:55;;;;;;;14.70;11.90;;;;;;;10.64;66.07;100728.83;105694;1254;66549;-73
2023/04/09 00:48:26;;;;;;;15.60;11.70;;;;;;;10.61;66.02;100733.30;105648;1254;60409;-73
2023/04/09 00:50:55;;;;;;;14.60;11.20;;;;;;;10.57;65.87;100738.15;105703;1254;65367;-74
2023/04/09 00:53:23;;;;;;;14.50;10.90;;;;;;;10.51;65.77;100743.13;105673;1253;60463;-73
2023/04/09 00:55:53;;;;;;;14.10;10.60;;;;;;;10.42;65.53;100748.61;105634;1259;60459;-73
2023/04/09 00:58:31;;;;;;;16.60;11.20;;;;;;;10.29;65.30;100745.11;105582;1257;66793;-73
2023/04/09 01:01:00;;;;;;;14.10;11.20;;;;;;;10.20;65.35;100744.52;105602;1254;60483;-74
2023/04/09 01:03:31;;;;;;;16.50;11.70;;;;;;;10.12;65.40;100741.39;105682;1252;65456;-74
2023/04/09 01:06:15;;;;;;;15.70;12.20;;;;;;;10.07;65.64;100743.18;105887;1259;60434;-73
2023/04/09 01:09:11;;;;;;;11.80;8.80;;;;;;;10.03;65.74;100744.97;105535;1256;60444;-74
2023/04/09 01:11:55;;;;;;;14.00;11.80;;;;;;;10.01;65.66;100742.86;105851;1255;66884;-73
2023/04/09 01:14:31;;;;;;;13.30;11.40;;;;;;;9.99;65.84;100741.92;105734;1261;60335;-72
2023/04/09 01:17:18;;;;;;;16.70;11.90;;;;;;;10.00;65.85;100742.94;105518;1254;65158;-73
2023/04/09 01:20:16;;;;;;;15.60;11.20;;;;;;;9.99;65.89;100745.13;105541;1254;60360;-73
2023/04/09 01:22:47;;;;;;;13.80;11.30;;;;;;;9.98;65.96;100750.12;105474;1254;60387;-73
2023/04/09 01:25:54;;;;;;;18.30;11.70;;;;;;;9.98;65.98;100750.29;105772;1256;66076;-73
2023/04/09 01:28:32;;;;;;;15.50;11.50;;;;;;;9.96;65.92;100751.52;105681;1254;60421;-73
2023/04/09 01:31:12;;;;;;;14.50;11.30;;;;;;;9.94;66.02;100750.39;105805;1253;65625;-73
2023/04/09 01:33:41;;;;;;;14.50;11.60;;;;;;;9.95;66.20;100755.47;105620;1260;60470;-74
2023/04/09 01:36:09;;;;;;;15.00;12.10;;;;;;;9.93;66.30;100759.57;105673;1253;60427;-73
2023/04/09 01:38:40;;;;;;;16.30;11.70;;;;;;;9.91;66.24;100762.90;106200;1255;66499;-74
2023/04/09 01:41:11;;;;;;;12.30;11.00;;;;;;;9.89;66.29;100763.75;105903;1254;60505;-72
2023/04/09 01:43:39;;;;;;;15.50;11.70;;;;;;;9.90;66.52;100766.15;105869;1256;64537;-74
2023/04/09 01:46:07;;;;;;;16.40;11.10;;;;;;;9.92;66.71;100761.08;105733;1254;61311;-73
2023/04/09 01:48:36;;;;;;;14.70;11.00;;;;;;;9.95;66.67;100760.36;105625;1254;61110;-72
2023/04/09 01:51:05;;;;;;;14.90;10.80;;;;;;;9.97;66.73;100757.05;105561;1260;66759;-72
2023/04/09 01:53:33;;;;;;;14.90;11.30;;;;;;;10.00;66.92;100759.96;105682;1254;60546;-73
2023/04/09 01:56:03;;;;;;;16.80;11.90;;;;;;;10.03;67.03;100760.11;105882;1254;65592;-74
2023/04/09 01:58:33;;;;;;;13.90;11.50;;;;;;;10.06;67.11;100760.31;105598;1259;60434;-73
2023/04/09 02:01:11;;;;;;;12.50;10.70;;;;;;;10.08;67.14;100761.21;105529;1254;60546;-73
2023/04/09 02:03:53;;;;;;;13.30;11.30;;;;;;;10.08;67.09;100755.91;105644;1258;66928;-73
2023/04/09 02:06:46;;;;;;;15.00;11.10;;;;;;;10.08;67.22;100755.25;105483;1259;60495;-74
2023/04/09 02:09:14;;;;;;;16.40;11.50;;;;;;;10.08;67.23;100747.65;105851;1254;65582;-73
2023/04/09 02:11:42;;;;;;;13.80;11.30;;;;;;;10.10;67.26;100745.90;105779;1259;60645;-73
2023/04/09 02:14:14;;;;;;;20.10;11.50;;;;;;;10.13;67.35;100744.67;105935;1254;60408;-73
2023/04/09 02:16:45;;;;;;;14.10;11.40;;;;;;;10.15;67.49;100744.15;105601;1257;66611;-73
2023/04/09 02:19:13;;;;;;;15.90;11.10;;;;;;;10.17;67.57;100745.41;105885;1256;60210;-72
2023/04/09 02:21:47;;;;;;;15.70;11.40;;;;;;;10.18;67.73;100746.40;105743;1254;65461;-72
2023/04/09 02:24:15;;;;;;;14.30;11.20;;;;;;;10.19;67.72;100743.48;105850;1257;60437;-73
2023/04/09 02:26:43;;;;;;;14.30;11.50;;;;;;;10.22;67.67;100745.08;105916;1255;60320;-73
2023/04/09 02:29:12;;;;;;;14.80;11.40;;;;;;;10.24;67.73;100744.08;105775;1256;66710;-74
2023/04/09 02:31:41;;;;;;;16.10;11.60;;;;;;;10.25;67.78;100744.66;106350;1254;60433;-71
2023/04/09 02:34:09;;;;;;;16.40;12.00;;;;;;;10.26;67.83;100748.46;106004;1254;65329;-73
2023/04/09 02:36:37;;;;;;;15.00;11.50;;;;;;;10.26;67.78;100743.70;105607;1256;60364;-73
2023/04/09 02:39:06;;;;;;;13.40;11.50;;;;;;;10.26;67.83;100743.34;105723;1254;60437;-72
2023/04/09 02:41:35;;;;;;;15.20;11.20;;;;;;;10.26;67.98;100743.34;105649;1258;66326;-73
2023/04/09 02:44:04;;;;;;;15.10;11.10;;;;;;;10.28;67.95;100743.20;105617;1259;60655;-74
2023/04/09 02:46:33;;;;;;;12.90;11.30;;;;;;;10.30;68.02;100744.48;105968;1254;65606;-73
2023/04/09 02:49:01;;;;;;;14.80;12.10;;;;;;;10.32;68.14;100739.58;105718;1254;60315;-73
2023/04/09 02:51:30;;;;;;;17.10;12.30;;;;;;;10.35;68.25;100739.38;105591;1254;60530;-74
2023/04/09 02:54:02;;;;;;;15.40;11.50;;;;;;;10.39;68.31;100742.66;105696;1255;66514;-73
2023/04/09 02:56:31;;;;;;;14.20;12.50;;;;;;;10.40;68.28;100743.05;105793;1254;60549;-73
2023/04/09 02:58:59;;;;;;;15.50;12.00;;;;;;;10.41;68.36;100740.55;105877;1254;64507;-73
2023/04/09 03:01:29;;;;;;;15.00;12.50;;;;;;;10.42;68.36;100739.27;105874;1254;60400;-73
2023/04/09 03:03:59;;;;;;;15.90;12.50;;;;;;;10.42;68.30;100741.70;105774;1254;60460;-74
2023/04/09 03:06:28;;;;;;;16.00;12.70;;;;;;;10.43;68.44;100741.48;105612;1254;65490;-73
2023/04/09 03:08:56;;;;;;;18.60;13.10;;;;;;;10.43;68.44;100742.32;105768;1254;60456;-72
2023/04/09 03:11:25;;;;;;;19.40;13.40;;;;;;;10.45;68.44;100742.71;106013;1254;65572;-73
2023/04/09 03:13:53;;;;;;;16.10;13.20;;;;;;;10.47;68.44;100741.71;105789;1254;60465;-73
2023/04/09 03:16:23;;;;;;;19.80;13.40;;;;;;;10.47;68.49;100742.92;105712;1254;60540;-74
2023/04/09 03:18:52;;;;;;;17.00;13.90;;;;;;;10.47;68.48;100745.38;105704;1259;66474;-71
2023/04/09 03:21:21;;;;;;;16.10;13.30;;;;;;;10.48;68.40;100748.45;105975;1254;60414;-72
2023/04/09 03:23:50;;;;;;;20.40;14.70;;;;;;;10.49;68.52;100750.19;105859;1254;65585;-74
2023/04/09 03:26:19;;;;;;;20.30;14.70;;;;;;;10.50;68.44;100746.23;105589;1254;60517;-74
2023/04/09 03:28:49;;;;;;;18.50;14.70;;;;;;;10.51;68.56;100745.60;105697;1254;60527;-72
2023/04/09 03:31:17;;;;;;;17.80;14.50;;;;;;;10.50;68.66;100744.98;105599;1259;66970;-73
2023/04/09 03:33:46;;;;;;;17.00;13.90;;;;;;;10.49;68.78;100741.70;105977;1254;60572;-71
2023/04/09 03:36:17;;;;;;;15.30;13.70;;;;;;;10.51;68.74;100739.65;105683;1254;65613;-73
2023/04/09 03:38:53;;;;;;;15.60;13.80;;;;;;;10.52;68.68;100741.11;105606;1254;60477;-74
2023/04/09 03:41:34;;;;;;;19.50;13.80;;;;;;;10.53;68.71;100735.79;105835;1253;60441;-72
2023/04/09 03:44:09;;;;;;;17.60;14.10;;;;;;;10.54;68.68;100730.44;106065;1260;66852;-74
2023/04/09 03:46:59;;;;;;;16.70;13.50;;;;;;;10.57;68.65;100726.34;105800;1254;61184;-74
2023/04/09 03:49:28;;;;;;;19.10;14.40;;;;;;;10.58;68.69;100723.96;105919;1254;65460;-73
2023/04/09 03:52:01;;;;;;;17.70;13.70;;;;;;;10.58;68.79;100723.02;105707;1258;60380;-73
2023/04/09 03:54:37;;;;;;;18.80;13.90;;;;;;;10.60;68.70;100726.45;106153;1254;60437;-73
2023/04/09 03:57:11;;;;;;;18.20;14.10;;;;;;;10.61;68.71;100729.54;105705;1256;66712;-73
2023/04/09 03:59:45;;;;;;;18.00;14.30;;;;;;;10.61;68.79;100726.55;105609;1259;60427;-73
2023/04/09 04:02:15;;;;;;;18.80;15.10;;;;;;;10.63;68.75;100725.05;105678;1254;64476;-74
2023/04/09 04:04:46;;;;;;;18.50;14.70;;;;;;;10.64;68.68;100724.98;105719;1259;60450;-74
2023/04/09 04:07:15;;;;;;;18.80;14.60;;;;;;;10.64;68.64;100727.75;105782;1254;60529;-74
2023/04/09 04:09:49;;;;;;;17.90;14.50;;;;;;;10.65;68.65;100728.77;106052;1255;66489;-74
2023/04/09 04:12:24;;;;;;;18.30;15.00;;;;;;;10.64;68.54;100729.50;105857;1254;60488;-73
2023/04/09 04:15:07;;;;;;;16.70;14.20;;;;;;;10.64;68.54;100726.71;105770;1255;65515;-73
2023/04/09 04:17:39;;;;;;;19.40;14.70;;;;;;;10.64;68.53;100725.31;105644;1254;60443;-74
2023/04/09 04:20:16;;;;;;;16.40;14.10;;;;;;;10.65;68.54;100727.73;105708;1254;60546;-73
2023/04/09 04:23:18;;;;;;;16.20;14.10;;;;;;;10.66;68.54;100733.25;105779;1253;67011;-72
2023/04/09 04:26:02;;;;;;;17.50;14.80;;;;;;;10.67;68.64;100732.44;105643;1254;60545;-74
2023/04/09 04:28:38;;;;;;;18.00;14.30;;;;;;;10.70;68.72;100735.02;105573;1254;65518;-74
2023/04/09 04:31:09;;;;;;;18.80;15.10;;;;;;;10.73;68.88;100733.94;105669;1260;60372;-73
2023/04/09 04:33:40;;;;;;;17.00;13.70;;;;;;;10.76;68.94;100730.86;105901;1254;60370;-72
2023/04/09 04:36:13;;;;;;;15.40;13.20;;;;;;;10.83;68.97;100734.95;105511;1257;66845;-73
2023/04/09 04:38:52;;;;;;;17.30;12.40;;;;;;;10.92;69.09;100732.39;105691;1254;60454;-74
2023/04/09 04:41:30;;;;;;;13.30;11.80;;;;;;;10.99;69.24;100733.24;105826;1255;65301;-72
2023/04/09 04:44:15;;;;;;;12.70;11.10;;;;;;;11.06;69.28;100731.08;105905;1254;60437;-73
2023/04/09 04:46:45;;;;;;;13.40;10.50;;;;;;;11.12;69.21;100729.61;105851;1254;60431;-73
2023/04/09 04:49:14;;;;;;;12.70;10.70;;;;;;;11.19;69.17;100731.16;105732;1259;66707;-73
2023/04/09 04:51:48;;;;;;;13.50;10.30;;;;;;;11.27;69.14;100735.86;105923;1259;60536;-73
2023/04/09 04:54:16;;;;;;;12.40;9.50;;;;;;;11.31;69.06;100739.44;105614;1254;64254;-71
2023/04/09 04:56:51;;;;;;;14.70;10.30;;;;;;;11.36;69.00;100741.67;105646;1254;60387;-73
2023/04/09 04:59:37;;;;;;;14.20;10.50;;;;;;;11.41;68.79;100737.96;105659;1253;60453;-72
2023/04/09 05:02:07;;;;;;;12.50;9.70;;;;;;;11.46;68.74;100735.46;105627;1254;65915;-73
2023/04/09 05:04:43;;;;;;;11.50;9.60;;;;;;;11.51;68.59;100735.45;105889;1256;60561;-73
2023/04/09 05:07:16;;;;;;;11.00;9.50;;;;;;;11.54;68.40;100737.80;105590;1257;65483;-72
2023/04/09 05:09:52;;;;;;;13.40;9.40;;;;;;;11.55;68.25;100740.54;105989;1259;60492;-74
2023/04/09 05:12:22;;;;;;;12.30;9.70;;;;;;;11.55;68.25;100738.25;105907;1254;60418;-73
2023/04/09 05:14:57;;;;;;;11.20;9.00;;;;;;;11.60;68.02;100741.02;105775;1256;66689;-73
2023/04/09 05:17:25;;;;;;;12.50;9.40;;;;;;;11.66;68.00;100738.96;105718;1254;60466;-74
2023/04/09 05:19:53;;;;;;;14.50;8.80;;;;;;;11.72;67.96;100739.54;105760;1254;65067;-74
2023/04/09 05:22:26;;;;;;;11.60;8.40;;;;;;;11.80;67.83;100737.95;105762;1254;60380;-74
2023/04/09 05:24:54;;;;;;;10.70;7.90;;;;;;;11.87;67.91;100739.50;105835;1254;60415;-75
2023/04/09 05:27:24;;;;;;;10.20;7.60;;;;;;;11.96;67.68;100742.13;105940;1254;66770;-73
2023/04/09 05:29:56;;;;;;;11.00;7.30;;;;;;;12.06;67.56;100744.54;105783;1252;60451;-75
2023/04/09 05:32:28;;;;;;;10.20;7.40;;;;;;;12.14;67.29;100744.41;105534;1254;65668;-73
2023/04/09 05:34:57;;;;;;;13.20;7.20;;;;;;;12.22;67.11;100748.34;105404;1254;60450;-74
2023/04/09 05:37:26;;;;;;;9.60;7.20;;;;;;;12.30;66.81;100751.07;105605;1254;60494;-75
2023/04/09 05:39:57;;;;;;;10.60;7.10;;;;;;;12.35;66.59;100753.30;106053;1260;67581;-74
2023/04/09 05:42:26;;;;;;;10.00;7.10;;;;;;;12.42;66.30;100758.22;106018;1256;60310;-73
2023/04/09 05:45:06;;;;;;;9.20;7.60;;;;;;;12.47;65.84;100759.53;105858;1254;65245;-73
2023/04/09 05:47:34;;;;;;;10.80;7.00;;;;;;;12.52;65.55;100762.31;105917;1254;60498;-73
2023/04/09 05:50:10;;;;;;;10.60;6.90;;;;;;;12.58;65.20;100761.84;105713;1259;60581;-72
2023/04/09 05:52:42;;;;;;;9.60;6.90;;;;;;;12.63;64.98;100761.95;105617;1259;66691;-71
2023/04/09 05:55:12;;;;;;;9.20;6.70;;;;;;;12.66;64.63;100764.95;105423;1255;60533;-73
2023/04/09 05:57:57;;;;;;;9.30;6.40;;;;;;;12.69;64.38;100767.46;105639;1254;65375;-74
2023/04/09 06:00:32;;;;;;;8.50;6.20;;;;;;;12.75;64.24;100768.75;105495;1259;60988;-74
2023/04/09 06:03:02;;;;;;;7.60;6.10;;;;;;;12.81;64.02;100771.23;106127;1256;60428;-72
2023/04/09 06:05:31;;;;;;;11.90;6.20;;;;;;;12.86;63.80;100767.14;105798;1257;66436;-73
2023/04/09 06:08:01;;;;;;;10.40;6.60;;;;;;;12.90;63.54;100768.34;105775;1254;60514;-74
2023/04/09 06:10:31;;;;;;;9.40;6.20;;;;;;;12.98;63.33;100765.27;105644;1254;65527;-73
2023/04/09 06:13:00;;;;;;;8.50;5.80;;;;;;;13.04;63.09;100767.40;105609;1254;60439;-75
2023/04/09 06:15:33;;;;;;;8.60;5.50;;;;;;;13.10;62.91;100765.34;105586;1260;60408;-74
2023/04/09 06:18:02;;;;;;;9.20;6.00;;;;;;;13.17;62.58;100768.40;105727;1257;66453;-74
2023/04/09 06:20:30;;;;;;;7.30;6.00;;;;;;;13.24;62.29;100776.06;105832;1256;60582;-73
2023/04/09 06:23:06;;;;;;;8.70;5.60;;;;;;;13.28;61.99;100776.36;105717;1258;65531;-74
2023/04/09 06:25:37;;;;;;;9.20;5.40;;;;;;;13.35;61.87;100775.95;105922;1254;60433;-74
2023/04/09 06:28:06;;;;;;;8.30;5.40;;;;;;;13.43;61.63;100775.45;105684;1254;60463;-74
2023/04/09 06:30:35;;;;;;;9.10;5.20;;;;;;;13.51;61.38;100772.97;105680;1257;67044;-74
2023/04/09 06:33:05;;;;;;;8.40;4.60;;;;;;;13.62;61.29;100775.23;105860;1254;60242;-74
2023/04/09 06:35:33;;;;;;;7.80;5.10;;;;;;;13.72;61.04;100772.80;105763;1257;65552;-72
2023/04/09 06:38:05;;;;;;;8.60;4.60;;;;;;;13.77;60.48;100772.14;105647;1259;60461;-74
2023/04/09 06:40:36;;;;;;;5.70;4.50;;;;;;;13.78;60.02;100770.35;105795;1257;60433;-74
2023/04/09 06:43:08;;;;;;;7.70;4.70;;;;;;;13.74;59.68;100770.83;105745;1259;66664;-73
2023/04/09 06:45:46;;;;;;;8.70;5.20;;;;;;;13.71;59.35;100768.56;105832;1256;60450;-74
2023/04/09 06:48:15;;;;;;;9.50;5.00;;;;;;;13.71;59.24;100764.70;105865;1266;65943;-72
2023/04/09 06:50:44;;;;;;;6.70;4.90;;;;;;;13.71;59.18;100760.65;105745;1263;60489;-73
2023/04/09 06:53:14;;;;;;;9.30;4.80;;;;;;;13.74;59.24;100761.27;105693;1260;60450;-74
2023/04/09 06:55:43;;;;;;;7.20;4.80;;;;;;;13.78;59.30;100757.79;105755;1257;66592;-74
2023/04/09 06:58:12;;;;;;;8.00;4.60;;;;;;;13.78;58.83;100760.75;105683;1259;60523;-74
2023/04/09 07:00:40;;;;;;;7.60;4.80;;;;;;;13.80;58.74;100761.29;105750;1259;65024;-74
2023/04/09 07:03:13;;;;;;;8.50;4.80;;;;;;;13.86;58.80;100761.85;105600;1259;60441;-73
2023/04/09 07:05:42;;;;;;;7.90;4.80;;;;;;;13.98;58.86;100763.44;105938;1253;60511;-74
2023/04/09 07:08:10;;;;;;;6.40;4.60;;;;;;;14.12;58.51;100764.88;105789;1256;66572;-73
2023/04/09 07:10:41;;;;;;;14.20;4.90;;;;;;;14.25;58.22;100761.59;105738;1254;60577;-74
2023/04/09 07:13:11;;;;;;;7.90;4.60;;;;;;;14.37;57.84;100761.09;105586;1254;65669;-73
2023/04/09 07:15:40;;;;;;;8.50;4.60;;;;;;;14.48;57.40;100762.70;105511;1258;243923;-74
2023/04/09 07:18:10;;;;;;;6.30;4.50;;;;;;;14.60;57.31;100763.61;105664;1253;60395;-74
2023/04/09 07:20:41;;;;;;;5.20;4.10;;;;;;;14.75;57.33;100766.12;105688;1257;66683;-75
2023/04/09 07:23:10;;;;;;;7.10;4.30;;;;;;;14.92;57.11;100767.39;105918;1257;61009;-75
2023/04/09 07:25:41;;;;;;;11.50;5.00;;;;;;;15.10;56.66;100769.67;105610;1254;65595;-74
2023/04/09 07:28:10;;;;;;;6.80;4.20;;;;;;;15.29;56.14;100767.20;105990;1260;60470;-76
2023/04/09 07:30:38;;;;;;;6.90;4.30;;;;;;;15.48;55.68;100768.80;105682;1260;60415;-72
2023/04/09 07:33:06;;;;;;;7.70;4.20;;;;;;;15.68;54.81;100767.66;105824;1256;66719;-70
2023/04/09 07:35:37;;;;;;;7.20;4.50;;;;;;;15.78;53.78;100763.00;105681;1257;60527;-70
2023/04/09 07:38:06;;;;;;;7.60;4.40;;;;;;;15.84;53.28;100757.91;105712;1260;65531;-72
2023/04/09 07:40:35;;;;;;;7.30;4.50;;;;;;;15.94;52.94;100758.03;105750;1254;60484;-75
2023/04/09 07:43:04;;;;;;;6.40;4.30;;;;;;;16.04;52.30;100760.51;105788;1257;60427;-75
2023/04/09 07:45:33;;;;;;;6.70;4.20;;;;;;;16.07;51.55;100761.95;105567;1257;67014;-73
2023/04/09 07:48:02;;;;;;;6.90;4.30;;;;;;;16.07;51.25;100762.71;105546;1254;60472;-73
2023/04/09 07:50:31;;;;;;;7.80;4.30;;;;;;;16.09;51.21;100761.77;106318;1258;65557;-74
2023/04/09 07:53:00;;;;;;;6.80;4.20;;;;;;;16.14;51.46;100760.58;105579;1255;60548;-73
2023/04/09 07:55:28;;;;;;;10.30;4.60;;;;;;;16.21;51.32;100763.12;105687;1259;60422;-75
2023/04/09 07:57:57;;;;;;;8.90;4.40;;;;;;;16.25;51.19;100760.77;105734;1260;64762;-72
2023/04/09 08:00:31;;;;;;;7.40;4.00;;;;;;;16.30;51.54;100759.55;105719;1257;61045;-72
2023/04/09 08:03:02;;;;;;;7.40;4.50;;;;;;;16.37;51.56;100755.51;105503;1260;65587;-74
2023/04/09 08:05:31;;;;;;;7.20;4.30;;;;;;;16.40;51.17;100754.89;105436;1260;61054;-72
2023/04/09 08:08:05;;;;;;;9.10;5.10;;;;;;;16.40;50.83;100755.93;105595;1253;61701;-73
2023/04/09 08:10:33;;;;;;;8.20;4.80;;;;;;;16.39;50.86;100759.52;105729;1259;66723;-72
2023/04/09 08:13:01;;;;;;;9.20;4.90;;;;;;;16.39;50.65;100758.45;105716;1259;60412;-73
2023/04/09 08:15:36;;;;;;;6.60;4.30;;;;;;;16.34;50.33;100762.51;105502;1260;65329;-71
2023/04/09 08:18:06;;;;;;;6.40;4.40;;;;;;;16.29;50.59;100763.48;105369;1259;60530;-71
2023/04/09 08:20:34;;;;;;;8.50;4.90;;;;;;;16.33;50.87;100758.93;105655;1258;60386;-72
2023/04/09 08:23:12;;;;;;;6.70;4.10;;;;;;;16.33;50.27;100756.60;105631;1258;66534;-73
2023/04/09 08:25:41;;;;;;;6.00;4.30;;;;;;;16.27;50.17;100758.09;105691;1255;60341;-72
2023/04/09 08:28:09;;;;;;;12.20;4.90;;;;;;;16.25;50.21;100754.52;105454;1254;65677;-70
2023/04/09 08:30:39;;;;;;;8.20;4.50;;;;;;;16.28;50.27;100753.36;105856;1255;60435;-72
2023/04/09 08:33:08;;;;;;;8.10;4.50;;;;;;;16.34;50.27;100747.11;105889;1254;60582;-70
2023/04/09 08:35:39;;;;;;;8.80;4.50;;;;;;;16.35;50.10;100750.16;105507;1260;65613;-71
2023/04/09 08:38:07;;;;;;;7.30;4.30;;;;;;;16.30;50.14;100753.66;105729;1255;60660;-73
2023/04/09 08:40:36;;;;;;;9.50;4.50;;;;;;;16.25;50.27;100752.91;105535;1258;63984;-71
2023/04/09 08:43:07;;;;;;;7.80;4.30;;;;;;;16.21;50.31;100752.09;105819;1257;60833;-72
2023/04/09 08:45:40;;;;;;;7.90;4.80;;;;;;;16.15;50.50;100747.52;105919;1252;60475;-72
2023/04/09 08:48:09;;;;;;;9.90;5.00;;;;;;;16.13;51.42;100749.71;105642;1259;66443;-74
2023/04/09 08:50:38;;;;;;;6.90;4.90;;;;;;;16.16;52.03;100747.94;105707;1253;60478;-69
2023/04/09 08:53:07;;;;;;;8.90;5.20;;;;;;;16.18;52.21;100750.02;105639;1259;64277;-73
2023/04/09 08:55:36;;;;;;;7.90;4.80;;;;;;;16.19;52.47;100746.88;105899;1254;60562;-72
2023/04/09 08:58:09;;;;;;;9.20;5.50;;;;;;;16.22;52.83;100750.69;105779;1259;60411;-77
2023/04/09 09:00:41;;;;;;;9.40;5.40;;;;;;;16.22;52.83;100750.01;105757;1256;66491;-75
2023/04/09 09:03:14;;;;;;;6.50;4.60;;;;;;;16.21;52.99;100756.85;105760;1261;60450;-71
2023/04/09 09:05:44;;;;;;;12.20;5.10;;;;;;;16.20;52.91;100758.17;105851;1254;64672;-81
2023/04/09 09:08:21;;;;;;;7.20;5.20;;;;;;;16.19;52.71;100756.73;105810;1254;60620;-74
2023/04/09 09:10:50;;;;;;;6.70;5.40;;;;;;;16.17;52.77;100762.60;105769;1254;60508;-73
2023/04/09 09:13:18;;;;;;;8.90;4.90;;;;;;;16.10;52.75;100770.02;105787;1260;66306;-72
2023/04/09 09:15:49;;;;;;;7.00;5.60;;;;;;;16.00;52.65;100773.80;105961;1253;60309;-74
2023/04/09 09:18:36;;;;;;;8.60;6.10;;;;;;;15.88;52.61;100769.69;105941;1253;65368;-73
2023/04/09 09:21:10;;;;;;;6.40;5.20;;;;;;;15.74;52.83;100764.08;105850;1257;60438;-73
2023/04/09 09:23:41;;;;;;;10.40;5.50;;;;;;;15.64;53.39;100767.67;105930;1254;60415;-73
2023/04/09 09:26:20;;;;;;;12.20;6.40;;;;;;;15.55;54.00;100769.03;105811;1258;66568;-73
2023/04/09 09:28:49;;;;;;;10.80;5.80;;;;;;;15.46;54.65;100768.08;105949;1254;60424;-73
2023/04/09 09:31:20;;;;;;;8.90;7.10;;;;;;;15.36;55.10;100766.34;105838;1254;65604;-72
2023/04/09 09:33:49;;;;;;;7.90;6.30;;;;;;;15.28;55.58;100764.67;105822;1257;60414;-73
2023/04/09 09:36:33;;;;;;;9.30;6.80;;;;;;;15.25;56.18;100763.16;106070;1256;60293;-72
2023/04/09 09:39:04;;;;;;;10.00;7.20;;;;;;;15.24;56.29;100761.06;105851;1257;66686;-73
2023/04/09 09:41:35;;;;;;;10.70;7.50;;;;;;;15.21;56.54;100763.36;106002;1255;60462;-73
2023/04/09 09:44:05;;;;;;;10.00;7.30;;;;;;;15.20;56.97;100763.09;106049;1255;65541;-74
2023/04/09 09:46:37;;;;;;;11.20;7.40;;;;;;;15.23;57.27;100759.29;105922;1254;60453;-72
2023/04/09 09:49:06;;;;;;;8.60;6.90;;;;;;;15.27;57.62;100762.23;106023;1254;60309;-73
2023/04/09 09:51:38;;;;;;;12.80;7.10;;;;;;;15.31;57.46;100762.75;106132;1257;66671;-73
2023/04/09 09:54:09;;;;;;;10.30;7.00;;;;;;;15.30;57.47;100764.25;105849;1253;60542;-73
2023/04/09 09:56:38;;;;;;;8.30;6.60;;;;;;;15.31;57.61;100763.80;105927;1257;64427;-73
2023/04/09 09:59:16;;;;;;;11.10;7.00;;;;;;;15.32;57.71;100764.98;105945;1254;60430;-72
2023/04/09 10:01:45;;;;;;;9.90;7.00;;;;;;;15.29;57.71;100764.59;105987;1254;60488;-72
2023/04/09 10:04:14;;;;;;;10.00;7.10;;;;;;;15.25;57.84;100761.56;106035;1255;66537;-72
2023/04/09 10:06:43;;;;;;;12.40;7.40;;;;;;;15.23;58.02;100762.39;105797;1257;60556;-72
2023/04/09 10:09:12;;;;;;;10.20;7.60;;;;;;;15.24;58.38;100765.15;105961;1254;65356;-72
2023/04/09 10:11:44;;;;;;;9.70;7.80;;;;;;;15.25;58.80;100765.40;105787;1257;60453;-73
2023/04/09 10:14:17;;;;;;;10.70;8.10;;;;;;;15.28;58.88;100769.55;105777;1254;60435;-73
2023/04/09 10:16:45;;;;;;;9.10;6.80;;;;;;;15.32;58.81;100770.45;105831;1257;66120;-73
2023/04/09 10:19:13;;;;;;;12.10;7.10;;;;;;;15.28;58.73;100766.39;105862;1257;60450;-75
2023/04/09 10:21:47;;;;;;;10.20;8.00;;;;;;;15.27;58.61;100767.94;105864;1255;65384;-73
2023/04/09 10:24:18;;;;;;;12.20;7.80;;;;;;;15.30;58.61;100769.93;105928;1254;60434;-73
2023/04/09 10:26:47;;;;;;;11.50;7.00;;;;;;;15.35;58.44;100766.42;106037;1253;60457;-73
2023/04/09 10:29:15;;;;;;;8.80;6.90;;;;;;;15.38;58.03;100766.17;105876;1256;66681;-74
2023/04/09 10:31:51;;;;;;;10.30;7.30;;;;;;;15.36;57.62;100765.81;106887;1254;60535;-72
2023/04/09 10:34:23;;;;;;;10.40;6.90;;;;;;;15.44;57.46;100762.77;105822;1257;64464;-76
2023/04/09 10:36:54;;;;;;;9.80;7.30;;;;;;;15.38;57.42;100761.91;106381;1254;60394;-74
2023/04/09 10:39:28;;;;;;;13.20;7.60;;;;;;;15.48;57.04;100761.20;109410;1253;58299;-75
2023/04/09 10:41:57;;;;;;;8.30;7.40;;;;;;;15.50;57.02;100760.84;106059;1253;65746;-74
2023/04/09 10:44:36;;;;;;;10.00;7.40;;;;;;;15.44;56.89;100755.70;105960;1254;60572;-74
2023/04/09 10:47:31;;;;;;;9.90;7.20;;;;;;;15.38;57.01;100757.79;106120;1254;65619;-74
2023/04/09 10:50:18;;;;;;;10.00;7.90;;;;;;;15.33;57.18;100756.20;105953;1254;60364;-74
2023/04/09 10:52:51;;;;;;;9.70;7.60;;;;;;;15.25;57.41;100757.45;105894;1254;60543;-76
2023/04/09 10:55:35;;;;;;;11.80;8.40;;;;;;;15.13;57.62;100759.51;105815;1258;66611;-74
2023/04/09 10:58:10;;;;;;;10.70;8.00;;;;;;;15.01;58.09;100758.42;105795;1257;60472;-75
2023/04/09 11:00:45;;;;;;;11.80;8.60;;;;;;;14.90;58.64;100764.20;105794;1261;65638;-74
2023/04/09 11:03:21;;;;;;;10.80;8.80;;;;;;;14.78;59.03;100763.23;105896;1254;60345;-74
2023/04/09 11:06:04;;;;;;;11.30;8.20;;;;;;;14.63;59.60;100762.62;105602;1254;60447;-76
2023/04/09 11:08:38;;;;;;;13.70;9.20;;;;;;;14.55;60.12;100761.25;105787;1254;66695;-76
2023/04/09 11:11:06;;;;;;;10.80;9.40;;;;;;;14.48;60.54;100760.11;105889;1254;60475;-74
2023/04/09 11:13:40;;;;;;;14.90;10.00;;;;;;;14.41;61.12;100754.48;105919;1257;65555;-75
2023/04/09 11:16:11;;;;;;;15.60;10.50;;;;;;;14.37;61.60;100751.83;105991;1253;60463;-75
2023/04/09 11:19:01;;;;;;;13.90;11.40;;;;;;;14.41;62.08;100751.14;105839;1254;60447;-74
2023/04/09 11:21:47;;;;;;;14.30;11.50;;;;;;;14.45;62.60;100746.55;105901;1254;66756;-74
2023/04/09 11:24:17;;;;;;;15.00;12.10;;;;;;;14.51;62.96;100746.52;106043;1254;60456;-74
2023/04/09 11:26:50;;;;;;;14.80;12.90;;;;;;;14.54;63.29;100747.32;105769;1257;65559;-74
2023/04/09 11:29:35;;;;;;;18.70;14.40;;;;;;;14.58;63.48;100744.62;105994;1254;60376;-74
2023/04/09 11:32:04;;;;;;;20.70;15.00;;;;;;;14.67;63.69;100740.48;105916;1253;60488;-74